sensor_id;sensor_type;location;lat;lon;timestamp;P1;durP1;ratioP1;P2;durP2;ratioP2
63807;SDS011;49961;43.970;22.868;2023-08-12T00:00:24;3.27;;;2.00;;
63807;SDS011;49961;43.970;22.868;2023-08-12T00:01:24;2.33;;;1.73;;
63807;SDS011;49961;43.970;22.868;2023-08-12T00:02:25;3.30;;;2.07;;
63807;SDS011;49961;43.970;22.868;2023-08-12T00:03:26;3.70;;;2.30;;
63807;SDS011;49961;43.970;22.868;2023-08-12T00:04:27;8.13;;;1.97;;
63807;SDS011;49961;43.970;22.868;2023-08-12T00:05:27;5.30;;;2.33;;
63807;SDS011;49961;43.970;22.868;2023-08-12T00:06:28;3.07;;;1.93;;
63807;SDS011;49961;43.970;22.868;2023-08-12T00:07:29;5.20;;;2.00;;
63807;SDS011;49961;43.970;22.868;2023-08-12T00:08:29;4.80;;;1.90;;
63807;SDS011;49961;43.970;22.868;2023-08-12T00:09:30;3.10;;;1.90;;
63807;SDS011;49961;43.970;22.868;2023-08-12T00:10:30;3.70;;;2.03;;
63807;SDS011;49961;43.970;22.868;2023-08-12T00:11:31;4.23;;;1.80;;
63807;SDS011;49961;43.970;22.868;2023-08-12T00:12:31;3.33;;;1.80;;
63807;SDS011;49961;43.970;22.868;2023-08-12T00:13:32;4.23;;;1.80;;
63807;SDS011;49961;43.970;22.868;2023-08-12T00:14:32;5.63;;;2.13;;
63807;SDS011;49961;43.970;22.868;2023-08-12T00:15:32;14.37;;;3.03;;
63807;SDS011;49961;43.970;22.868;2023-08-12T00:16:33;6.77;;;2.33;;
63807;SDS011;49961;43.970;22.868;2023-08-12T00:17:34;6.80;;;2.47;;
63807;SDS011;49961;43.970;22.868;2023-08-12T00:18:36;4.63;;;2.10;;
63807;SDS011;49961;43.970;22.868;2023-08-12T00:19:37;6.60;;;2.27;;
63807;SDS011;49961;43.970;22.868;2023-08-12T00:20:37;5.37;;;2.10;;
63807;SDS011;49961;43.970;22.868;2023-08-12T00:21:38;6.13;;;1.77;;
63807;SDS011;49961;43.970;22.868;2023-08-12T00:22:38;5.10;;;2.27;;
63807;SDS011;49961;43.970;22.868;2023-08-12T00:23:40;3.63;;;1.70;;
63807;SDS011;49961;43.970;22.868;2023-08-12T00:24:40;4.13;;;1.80;;
63807;SDS011;49961;43.970;22.868;2023-08-12T00:25:41;3.57;;;2.00;;
63807;SDS011;49961;43.970;22.868;2023-08-12T00:26:41;6.87;;;2.20;;
63807;SDS011;49961;43.970;22.868;2023-08-12T00:27:42;4.33;;;2.40;;
63807;SDS011;49961;43.970;22.868;2023-08-12T00:28:42;3.80;;;2.00;;
63807;SDS011;49961;43.970;22.868;2023-08-12T00:29:42;3.57;;;1.93;;
63807;SDS011;49961;43.970;22.868;2023-08-12T00:30:43;6.87;;;2.10;;
63807;SDS011;49961;43.970;22.868;2023-08-12T00:31:43;3.47;;;1.87;;
63807;SDS011;49961;43.970;22.868;2023-08-12T00:32:44;5.03;;;2.00;;
63807;SDS011;49961;43.970;22.868;2023-08-12T00:33:44;3.87;;;1.80;;
63807;SDS011;49961;43.970;22.868;2023-08-12T00:34:44;2.73;;;1.70;;
63807;SDS011;49961;43.970;22.868;2023-08-12T00:35:45;2.87;;;1.93;;
63807;SDS011;49961;43.970;22.868;2023-08-12T00:36:45;3.10;;;1.80;;
63807;SDS011;49961;43.970;22.868;2023-08-12T00:37:46;4.10;;;1.90;;
63807;SDS011;49961;43.970;22.868;2023-08-12T00:38:46;3.37;;;1.90;;
63807;SDS011;49961;43.970;22.868;2023-08-12T00:39:46;3.77;;;2.10;;
63807;SDS011;49961;43.970;22.868;2023-08-12T00:40:47;3.10;;;2.00;;
63807;SDS011;49961;43.970;22.868;2023-08-12T00:41:47;3.47;;;2.00;;
63807;SDS011;49961;43.970;22.868;2023-08-12T00:42:48;3.10;;;2.07;;
63807;SDS011;49961;43.970;22.868;2023-08-12T00:43:48;3.47;;;1.90;;
63807;SDS011;49961;43.970;22.868;2023-08-12T00:44:49;3.10;;;2.10;;
63807;SDS011;49961;43.970;22.868;2023-08-12T00:45:49;3.97;;;1.97;;
63807;SDS011;49961;43.970;22.868;2023-08-12T00:46:50;5.80;;;2.33;;
63807;SDS011;49961;43.970;22.868;2023-08-12T00:47:51;2.57;;;1.87;;
63807;SDS011;49961;43.970;22.868;2023-08-12T00:48:51;5.10;;;2.80;;
63807;SDS011;49961;43.970;22.868;2023-08-12T00:49:52;3.77;;;1.70;;
63807;SDS011;49961;43.970;22.868;2023-08-12T00:50:52;6.70;;;1.80;;
63807;SDS011;49961;43.970;22.868;2023-08-12T00:51:53;3.37;;;1.87;;
63807;SDS011;49961;43.970;22.868;2023-08-12T00:52:54;2.80;;;1.63;;
63807;SDS011;49961;43.970;22.868;2023-08-12T00:53:55;5.83;;;1.77;;
63807;SDS011;49961;43.970;22.868;2023-08-12T00:54:58;5.50;;;1.63;;
63807;SDS011;49961;43.970;22.868;2023-08-12T00:55:58;3.87;;;1.60;;
63807;SDS011;49961;43.970;22.868;2023-08-12T00:56:59;6.67;;;1.87;;
63807;SDS011;49961;43.970;22.868;2023-08-12T00:57:59;7.73;;;1.87;;
63807;SDS011;49961;43.970;22.868;2023-08-12T00:59:00;3.83;;;1.70;;
63807;SDS011;49961;43.970;22.868;2023-08-12T01:00:04;8.13;;;2.30;;
63807;SDS011;49961;43.970;22.868;2023-08-12T01:01:05;12.30;;;2.20;;
63807;SDS011;49961;43.970;22.868;2023-08-12T01:02:06;5.37;;;2.10;;
63807;SDS011;49961;43.970;22.868;2023-08-12T01:03:07;7.80;;;2.33;;
63807;SDS011;49961;43.970;22.868;2023-08-12T01:04:07;4.60;;;2.23;;
63807;SDS011;49961;43.970;22.868;2023-08-12T01:05:08;7.87;;;2.10;;
63807;SDS011;49961;43.970;22.868;2023-08-12T01:06:08;5.80;;;2.60;;
63807;SDS011;49961;43.970;22.868;2023-08-12T01:07:09;5.77;;;2.23;;
63807;SDS011;49961;43.970;22.868;2023-08-12T01:08:09;4.77;;;1.90;;
63807;SDS011;49961;43.970;22.868;2023-08-12T01:09:10;8.43;;;2.10;;
63807;SDS011;49961;43.970;22.868;2023-08-12T01:10:11;6.73;;;1.93;;
63807;SDS011;49961;43.970;22.868;2023-08-12T01:11:16;4.10;;;2.13;;
63807;SDS011;49961;43.970;22.868;2023-08-12T01:12:27;3.13;;;1.80;;
63807;SDS011;49961;43.970;22.868;2023-08-12T01:13:39;5.33;;;1.90;;
63807;SDS011;49961;43.970;22.868;2023-08-12T01:15:01;6.37;;;2.47;;
63807;SDS011;49961;43.970;22.868;2023-08-12T01:16:05;7.20;;;2.00;;
63807;SDS011;49961;43.970;22.868;2023-08-12T01:17:08;3.10;;;1.70;;
63807;SDS011;49961;43.970;22.868;2023-08-12T01:18:11;5.53;;;2.10;;
63807;SDS011;49961;43.970;22.868;2023-08-12T01:19:29;4.10;;;2.30;;
63807;SDS011;49961;43.970;22.868;2023-08-12T01:20:34;5.27;;;2.13;;
63807;SDS011;49961;43.970;22.868;2023-08-12T01:21:36;4.13;;;2.17;;
63807;SDS011;49961;43.970;22.868;2023-08-12T01:22:44;4.00;;;2.00;;
63807;SDS011;49961;43.970;22.868;2023-08-12T01:23:44;6.33;;;2.10;;
63807;SDS011;49961;43.970;22.868;2023-08-12T01:24:45;4.43;;;1.93;;
63807;SDS011;49961;43.970;22.868;2023-08-12T01:25:45;3.37;;;1.80;;
63807;SDS011;49961;43.970;22.868;2023-08-12T01:26:46;3.93;;;1.80;;
63807;SDS011;49961;43.970;22.868;2023-08-12T01:27:46;4.80;;;2.00;;
63807;SDS011;49961;43.970;22.868;2023-08-12T01:28:47;3.47;;;1.80;;
63807;SDS011;49961;43.970;22.868;2023-08-12T01:29:49;7.47;;;2.00;;
63807;SDS011;49961;43.970;22.868;2023-08-12T01:30:54;4.83;;;2.10;;
63807;SDS011;49961;43.970;22.868;2023-08-12T01:33:44;5.00;;;2.07;;
63807;SDS011;49961;43.970;22.868;2023-08-12T01:34:52;6.27;;;2.00;;
63807;SDS011;49961;43.970;22.868;2023-08-12T01:36:05;3.97;;;2.30;;
63807;SDS011;49961;43.970;22.868;2023-08-12T01:37:13;5.53;;;2.33;;
63807;SDS011;49961;43.970;22.868;2023-08-12T01:38:25;3.67;;;1.80;;
63807;SDS011;49961;43.970;22.868;2023-08-12T01:39:28;3.83;;;1.83;;
63807;SDS011;49961;43.970;22.868;2023-08-12T01:40:31;3.67;;;2.20;;
63807;SDS011;49961;43.970;22.868;2023-08-12T01:41:33;3.70;;;2.00;;
63807;SDS011;49961;43.970;22.868;2023-08-12T01:42:33;3.67;;;1.73;;
63807;SDS011;49961;43.970;22.868;2023-08-12T01:43:34;5.57;;;2.10;;
63807;SDS011;49961;43.970;22.868;2023-08-12T01:44:35;2.77;;;2.00;;
63807;SDS011;49961;43.970;22.868;2023-08-12T01:45:35;3.47;;;1.80;;
63807;SDS011;49961;43.970;22.868;2023-08-12T01:46:36;3.93;;;1.70;;
63807;SDS011;49961;43.970;22.868;2023-08-12T01:47:36;3.63;;;1.90;;
63807;SDS011;49961;43.970;22.868;2023-08-12T01:48:37;4.13;;;1.83;;
63807;SDS011;49961;43.970;22.868;2023-08-12T01:49:37;4.27;;;1.97;;
63807;SDS011;49961;43.970;22.868;2023-08-12T01:50:38;2.73;;;1.80;;
63807;SDS011;49961;43.970;22.868;2023-08-12T01:51:38;2.90;;;1.77;;
63807;SDS011;49961;43.970;22.868;2023-08-12T01:52:39;4.60;;;1.77;;
63807;SDS011;49961;43.970;22.868;2023-08-12T01:53:39;5.33;;;2.10;;
63807;SDS011;49961;43.970;22.868;2023-08-12T01:54:39;3.60;;;1.77;;
63807;SDS011;49961;43.970;22.868;2023-08-12T01:55:42;3.97;;;1.80;;
63807;SDS011;49961;43.970;22.868;2023-08-12T01:56:44;7.10;;;1.97;;
63807;SDS011;49961;43.970;22.868;2023-08-12T01:57:44;3.27;;;1.90;;
63807;SDS011;49961;43.970;22.868;2023-08-12T01:58:45;5.27;;;2.17;;
63807;SDS011;49961;43.970;22.868;2023-08-12T01:59:45;3.77;;;1.90;;
63807;SDS011;49961;43.970;22.868;2023-08-12T02:00:46;6.87;;;1.87;;
63807;SDS011;49961;43.970;22.868;2023-08-12T02:01:46;4.03;;;1.83;;
63807;SDS011;49961;43.970;22.868;2023-08-12T02:02:46;3.77;;;1.90;;
63807;SDS011;49961;43.970;22.868;2023-08-12T02:03:47;6.73;;;2.33;;
63807;SDS011;49961;43.970;22.868;2023-08-12T02:04:47;5.93;;;2.00;;
63807;SDS011;49961;43.970;22.868;2023-08-12T02:05:48;3.33;;;1.97;;
63807;SDS011;49961;43.970;22.868;2023-08-12T02:06:48;6.00;;;1.93;;
63807;SDS011;49961;43.970;22.868;2023-08-12T02:07:49;6.23;;;2.10;;
63807;SDS011;49961;43.970;22.868;2023-08-12T02:08:50;5.83;;;2.40;;
63807;SDS011;49961;43.970;22.868;2023-08-12T02:09:50;12.37;;;3.13;;
63807;SDS011;49961;43.970;22.868;2023-08-12T02:10:51;10.50;;;3.00;;
63807;SDS011;49961;43.970;22.868;2023-08-12T02:11:51;8.07;;;3.03;;
63807;SDS011;49961;43.970;22.868;2023-08-12T02:12:52;14.10;;;3.17;;
63807;SDS011;49961;43.970;22.868;2023-08-12T02:13:52;6.50;;;2.60;;
63807;SDS011;49961;43.970;22.868;2023-08-12T02:14:52;10.23;;;3.50;;
63807;SDS011;49961;43.970;22.868;2023-08-12T02:15:53;10.57;;;3.93;;
63807;SDS011;49961;43.970;22.868;2023-08-12T02:16:54;9.77;;;2.80;;
63807;SDS011;49961;43.970;22.868;2023-08-12T02:17:54;9.80;;;2.80;;
63807;SDS011;49961;43.970;22.868;2023-08-12T02:18:54;9.70;;;2.63;;
63807;SDS011;49961;43.970;22.868;2023-08-12T02:19:55;8.53;;;2.80;;
63807;SDS011;49961;43.970;22.868;2023-08-12T02:20:55;12.10;;;2.93;;
63807;SDS011;49961;43.970;22.868;2023-08-12T02:21:55;7.90;;;2.53;;
63807;SDS011;49961;43.970;22.868;2023-08-12T02:22:56;7.63;;;2.50;;
63807;SDS011;49961;43.970;22.868;2023-08-12T02:23:56;5.13;;;2.63;;
63807;SDS011;49961;43.970;22.868;2023-08-12T02:24:57;6.20;;;2.20;;
63807;SDS011;49961;43.970;22.868;2023-08-12T02:25:58;7.33;;;2.33;;
63807;SDS011;49961;43.970;22.868;2023-08-12T02:26:58;7.60;;;2.53;;
63807;SDS011;49961;43.970;22.868;2023-08-12T02:27:59;8.23;;;2.70;;
63807;SDS011;49961;43.970;22.868;2023-08-12T02:28:59;7.87;;;2.70;;
63807;SDS011;49961;43.970;22.868;2023-08-12T02:30:00;8.00;;;2.40;;
63807;SDS011;49961;43.970;22.868;2023-08-12T02:31:00;8.00;;;2.40;;
63807;SDS011;49961;43.970;22.868;2023-08-12T02:32:01;6.43;;;2.30;;
63807;SDS011;49961;43.970;22.868;2023-08-12T02:33:01;8.53;;;2.40;;
63807;SDS011;49961;43.970;22.868;2023-08-12T02:34:01;6.43;;;2.30;;
63807;SDS011;49961;43.970;22.868;2023-08-12T02:35:03;5.03;;;2.30;;
63807;SDS011;49961;43.970;22.868;2023-08-12T02:36:04;8.30;;;2.50;;
63807;SDS011;49961;43.970;22.868;2023-08-12T02:37:04;9.13;;;2.83;;
63807;SDS011;49961;43.970;22.868;2023-08-12T02:38:05;5.93;;;2.60;;
63807;SDS011;49961;43.970;22.868;2023-08-12T02:39:05;9.97;;;3.17;;
63807;SDS011;49961;43.970;22.868;2023-08-12T02:40:06;6.43;;;2.67;;
63807;SDS011;49961;43.970;22.868;2023-08-12T02:41:07;13.10;;;2.50;;
63807;SDS011;49961;43.970;22.868;2023-08-12T02:42:07;8.23;;;2.70;;
63807;SDS011;49961;43.970;22.868;2023-08-12T02:43:07;7.50;;;2.53;;
63807;SDS011;49961;43.970;22.868;2023-08-12T02:44:10;6.80;;;2.40;;
63807;SDS011;49961;43.970;22.868;2023-08-12T02:45:10;7.40;;;2.40;;
63807;SDS011;49961;43.970;22.868;2023-08-12T02:46:11;7.20;;;2.43;;
63807;SDS011;49961;43.970;22.868;2023-08-12T02:47:12;5.20;;;2.50;;
63807;SDS011;49961;43.970;22.868;2023-08-12T02:48:13;5.60;;;2.30;;
63807;SDS011;49961;43.970;22.868;2023-08-12T02:49:13;7.17;;;2.60;;
63807;SDS011;49961;43.970;22.868;2023-08-12T02:50:14;4.60;;;2.30;;
63807;SDS011;49961;43.970;22.868;2023-08-12T02:51:14;4.97;;;2.47;;
63807;SDS011;49961;43.970;22.868;2023-08-12T02:52:15;5.83;;;2.43;;
63807;SDS011;49961;43.970;22.868;2023-08-12T02:53:15;7.63;;;2.50;;
63807;SDS011;49961;43.970;22.868;2023-08-12T02:54:16;6.00;;;2.30;;
63807;SDS011;49961;43.970;22.868;2023-08-12T02:55:16;7.53;;;2.60;;
63807;SDS011;49961;43.970;22.868;2023-08-12T02:56:17;4.73;;;2.30;;
63807;SDS011;49961;43.970;22.868;2023-08-12T02:57:17;3.67;;;2.27;;
63807;SDS011;49961;43.970;22.868;2023-08-12T02:58:17;6.33;;;2.73;;
63807;SDS011;49961;43.970;22.868;2023-08-12T02:59:18;5.67;;;2.40;;
63807;SDS011;49961;43.970;22.868;2023-08-12T03:00:18;6.67;;;2.50;;
63807;SDS011;49961;43.970;22.868;2023-08-12T03:01:20;7.57;;;2.87;;
63807;SDS011;49961;43.970;22.868;2023-08-12T03:02:21;7.07;;;2.67;;
63807;SDS011;49961;43.970;22.868;2023-08-12T03:03:21;6.17;;;2.40;;
63807;SDS011;49961;43.970;22.868;2023-08-12T03:04:22;6.43;;;2.40;;
63807;SDS011;49961;43.970;22.868;2023-08-12T03:05:22;4.93;;;2.50;;
63807;SDS011;49961;43.970;22.868;2023-08-12T03:06:23;11.00;;;2.67;;
63807;SDS011;49961;43.970;22.868;2023-08-12T03:07:23;5.90;;;2.57;;
63807;SDS011;49961;43.970;22.868;2023-08-12T03:08:24;5.33;;;2.23;;
63807;SDS011;49961;43.970;22.868;2023-08-12T03:09:24;6.37;;;2.47;;
63807;SDS011;49961;43.970;22.868;2023-08-12T03:10:25;8.97;;;2.50;;
63807;SDS011;49961;43.970;22.868;2023-08-12T03:11:25;3.97;;;2.37;;
63807;SDS011;49961;43.970;22.868;2023-08-12T03:12:26;8.23;;;2.80;;
63807;SDS011;49961;43.970;22.868;2023-08-12T03:13:26;5.20;;;2.47;;
63807;SDS011;49961;43.970;22.868;2023-08-12T03:14:28;5.43;;;2.60;;
63807;SDS011;49961;43.970;22.868;2023-08-12T03:15:29;6.13;;;2.43;;
63807;SDS011;49961;43.970;22.868;2023-08-12T03:16:30;4.87;;;2.50;;
63807;SDS011;49961;43.970;22.868;2023-08-12T03:17:30;6.33;;;2.40;;
63807;SDS011;49961;43.970;22.868;2023-08-12T03:18:31;5.27;;;2.70;;
63807;SDS011;49961;43.970;22.868;2023-08-12T03:19:31;7.53;;;2.50;;
63807;SDS011;49961;43.970;22.868;2023-08-12T03:20:32;8.47;;;2.70;;
63807;SDS011;49961;43.970;22.868;2023-08-12T03:21:32;7.17;;;2.70;;
63807;SDS011;49961;43.970;22.868;2023-08-12T03:22:35;7.63;;;2.73;;
63807;SDS011;49961;43.970;22.868;2023-08-12T03:23:37;6.33;;;2.70;;
63807;SDS011;49961;43.970;22.868;2023-08-12T03:24:38;5.20;;;2.30;;
63807;SDS011;49961;43.970;22.868;2023-08-12T03:25:38;7.10;;;2.87;;
63807;SDS011;49961;43.970;22.868;2023-08-12T03:26:38;7.17;;;2.70;;
63807;SDS011;49961;43.970;22.868;2023-08-12T03:27:39;5.83;;;2.60;;
63807;SDS011;49961;43.970;22.868;2023-08-12T03:28:39;6.77;;;2.80;;
63807;SDS011;49961;43.970;22.868;2023-08-12T03:29:40;5.83;;;2.83;;
63807;SDS011;49961;43.970;22.868;2023-08-12T03:30:40;8.93;;;3.03;;
63807;SDS011;49961;43.970;22.868;2023-08-12T03:31:40;8.53;;;2.80;;
63807;SDS011;49961;43.970;22.868;2023-08-12T03:32:41;7.33;;;3.00;;
63807;SDS011;49961;43.970;22.868;2023-08-12T03:33:41;8.00;;;2.90;;
63807;SDS011;49961;43.970;22.868;2023-08-12T03:34:42;7.03;;;2.70;;
63807;SDS011;49961;43.970;22.868;2023-08-12T03:35:44;9.53;;;3.00;;
63807;SDS011;49961;43.970;22.868;2023-08-12T03:36:45;11.10;;;3.30;;
63807;SDS011;49961;43.970;22.868;2023-08-12T03:37:48;8.37;;;3.03;;
63807;SDS011;49961;43.970;22.868;2023-08-12T03:38:48;6.13;;;2.87;;
63807;SDS011;49961;43.970;22.868;2023-08-12T03:39:49;7.03;;;2.90;;
63807;SDS011;49961;43.970;22.868;2023-08-12T03:40:49;9.30;;;2.70;;
63807;SDS011;49961;43.970;22.868;2023-08-12T03:41:50;7.47;;;2.63;;
63807;SDS011;49961;43.970;22.868;2023-08-12T03:42:50;9.50;;;2.70;;
63807;SDS011;49961;43.970;22.868;2023-08-12T03:45:10;8.20;;;2.50;;
63807;SDS011;49961;43.970;22.868;2023-08-12T03:46:10;12.40;;;3.17;;
63807;SDS011;49961;43.970;22.868;2023-08-12T03:47:11;6.70;;;2.73;;
63807;SDS011;49961;43.970;22.868;2023-08-12T03:48:11;9.13;;;2.60;;
63807;SDS011;49961;43.970;22.868;2023-08-12T03:49:11;5.63;;;2.40;;
63807;SDS011;49961;43.970;22.868;2023-08-12T03:50:12;4.50;;;2.77;;
63807;SDS011;49961;43.970;22.868;2023-08-12T03:51:12;5.97;;;2.57;;
63807;SDS011;49961;43.970;22.868;2023-08-12T03:52:13;5.80;;;2.43;;
63807;SDS011;49961;43.970;22.868;2023-08-12T03:53:13;5.80;;;2.60;;
63807;SDS011;49961;43.970;22.868;2023-08-12T03:54:14;6.97;;;2.60;;
63807;SDS011;49961;43.970;22.868;2023-08-12T03:55:14;6.53;;;2.70;;
63807;SDS011;49961;43.970;22.868;2023-08-12T03:56:14;7.90;;;2.60;;
63807;SDS011;49961;43.970;22.868;2023-08-12T03:57:16;7.17;;;2.87;;
63807;SDS011;49961;43.970;22.868;2023-08-12T03:58:16;15.23;;;3.93;;
63807;SDS011;49961;43.970;22.868;2023-08-12T03:59:17;18.83;;;4.40;;
63807;SDS011;49961;43.970;22.868;2023-08-12T04:00:17;21.33;;;4.93;;
63807;SDS011;49961;43.970;22.868;2023-08-12T04:01:18;17.50;;;4.30;;
63807;SDS011;49961;43.970;22.868;2023-08-12T04:02:18;15.17;;;4.53;;
63807;SDS011;49961;43.970;22.868;2023-08-12T04:03:18;16.07;;;4.40;;
63807;SDS011;49961;43.970;22.868;2023-08-12T04:04:19;16.03;;;4.37;;
63807;SDS011;49961;43.970;22.868;2023-08-12T04:05:19;19.43;;;4.10;;
63807;SDS011;49961;43.970;22.868;2023-08-12T04:06:20;18.53;;;4.67;;
63807;SDS011;49961;43.970;22.868;2023-08-12T04:07:20;12.40;;;3.90;;
63807;SDS011;49961;43.970;22.868;2023-08-12T04:08:22;18.40;;;4.50;;
63807;SDS011;49961;43.970;22.868;2023-08-12T04:09:23;17.10;;;4.23;;
63807;SDS011;49961;43.970;22.868;2023-08-12T04:10:24;17.77;;;4.97;;
63807;SDS011;49961;43.970;22.868;2023-08-12T04:11:24;18.23;;;4.67;;
63807;SDS011;49961;43.970;22.868;2023-08-12T04:12:25;25.97;;;4.97;;
63807;SDS011;49961;43.970;22.868;2023-08-12T04:13:25;17.30;;;4.87;;
63807;SDS011;49961;43.970;22.868;2023-08-12T04:14:26;15.90;;;4.50;;
63807;SDS011;49961;43.970;22.868;2023-08-12T04:15:27;10.30;;;4.23;;
63807;SDS011;49961;43.970;22.868;2023-08-12T04:16:27;13.33;;;4.30;;
63807;SDS011;49961;43.970;22.868;2023-08-12T04:17:27;11.67;;;3.20;;
63807;SDS011;49961;43.970;22.868;2023-08-12T04:18:28;13.53;;;3.63;;
63807;SDS011;49961;43.970;22.868;2023-08-12T04:19:28;10.93;;;3.63;;
63807;SDS011;49961;43.970;22.868;2023-08-12T04:20:29;14.93;;;4.10;;
63807;SDS011;49961;43.970;22.868;2023-08-12T04:21:29;9.93;;;4.17;;
63807;SDS011;49961;43.970;22.868;2023-08-12T04:22:30;16.93;;;3.77;;
63807;SDS011;49961;43.970;22.868;2023-08-12T04:23:30;9.07;;;3.70;;
63807;SDS011;49961;43.970;22.868;2023-08-12T04:24:30;9.33;;;4.10;;
63807;SDS011;49961;43.970;22.868;2023-08-12T04:25:31;12.60;;;3.90;;
63807;SDS011;49961;43.970;22.868;2023-08-12T04:26:31;13.07;;;3.67;;
63807;SDS011;49961;43.970;22.868;2023-08-12T04:27:32;8.53;;;3.40;;
63807;SDS011;49961;43.970;22.868;2023-08-12T04:28:32;9.93;;;3.20;;
63807;SDS011;49961;43.970;22.868;2023-08-12T04:29:32;5.50;;;2.80;;
63807;SDS011;49961;43.970;22.868;2023-08-12T04:30:33;11.00;;;3.30;;
63807;SDS011;49961;43.970;22.868;2023-08-12T04:31:33;13.83;;;3.07;;
63807;SDS011;49961;43.970;22.868;2023-08-12T04:32:34;8.23;;;2.90;;
63807;SDS011;49961;43.970;22.868;2023-08-12T04:33:34;6.53;;;2.70;;
63807;SDS011;49961;43.970;22.868;2023-08-12T04:34:34;7.50;;;2.63;;
63807;SDS011;49961;43.970;22.868;2023-08-12T04:35:35;7.40;;;3.10;;
63807;SDS011;49961;43.970;22.868;2023-08-12T04:36:35;7.87;;;2.80;;
63807;SDS011;49961;43.970;22.868;2023-08-12T04:37:36;5.50;;;2.47;;
63807;SDS011;49961;43.970;22.868;2023-08-12T04:38:36;9.33;;;2.87;;
63807;SDS011;49961;43.970;22.868;2023-08-12T04:39:37;13.03;;;3.03;;
63807;SDS011;49961;43.970;22.868;2023-08-12T04:40:40;9.37;;;2.70;;
63807;SDS011;49961;43.970;22.868;2023-08-12T04:41:41;6.10;;;2.67;;
63807;SDS011;49961;43.970;22.868;2023-08-12T04:42:42;8.43;;;2.80;;
63807;SDS011;49961;43.970;22.868;2023-08-12T04:43:42;6.63;;;2.70;;
63807;SDS011;49961;43.970;22.868;2023-08-12T04:44:42;7.47;;;2.50;;
63807;SDS011;49961;43.970;22.868;2023-08-12T04:45:46;5.30;;;2.53;;
63807;SDS011;49961;43.970;22.868;2023-08-12T04:46:47;5.17;;;2.67;;
63807;SDS011;49961;43.970;22.868;2023-08-12T04:47:47;5.80;;;2.60;;
63807;SDS011;49961;43.970;22.868;2023-08-12T04:48:47;5.30;;;2.47;;
63807;SDS011;49961;43.970;22.868;2023-08-12T04:49:48;4.47;;;2.60;;
63807;SDS011;49961;43.970;22.868;2023-08-12T04:50:48;4.77;;;2.70;;
63807;SDS011;49961;43.970;22.868;2023-08-12T04:51:51;5.50;;;2.60;;
63807;SDS011;49961;43.970;22.868;2023-08-12T04:52:52;5.53;;;2.77;;
63807;SDS011;49961;43.970;22.868;2023-08-12T04:53:53;5.73;;;2.97;;
63807;SDS011;49961;43.970;22.868;2023-08-12T04:54:53;7.17;;;2.93;;
63807;SDS011;49961;43.970;22.868;2023-08-12T04:55:55;5.20;;;3.03;;
63807;SDS011;49961;43.970;22.868;2023-08-12T04:56:55;6.33;;;2.67;;
63807;SDS011;49961;43.970;22.868;2023-08-12T04:57:56;5.47;;;2.87;;
63807;SDS011;49961;43.970;22.868;2023-08-12T04:58:57;5.07;;;2.70;;
63807;SDS011;49961;43.970;22.868;2023-08-12T04:59:57;4.93;;;2.50;;
63807;SDS011;49961;43.970;22.868;2023-08-12T05:00:58;6.77;;;2.77;;
63807;SDS011;49961;43.970;22.868;2023-08-12T05:01:58;3.20;;;2.33;;
63807;SDS011;49961;43.970;22.868;2023-08-12T05:02:58;6.33;;;2.80;;
63807;SDS011;49961;43.970;22.868;2023-08-12T05:03:59;7.17;;;2.63;;
63807;SDS011;49961;43.970;22.868;2023-08-12T05:04:59;6.10;;;2.27;;
63807;SDS011;49961;43.970;22.868;2023-08-12T05:06:00;4.63;;;2.57;;
63807;SDS011;49961;43.970;22.868;2023-08-12T05:07:01;5.97;;;2.33;;
63807;SDS011;49961;43.970;22.868;2023-08-12T05:08:01;4.23;;;2.30;;
63807;SDS011;49961;43.970;22.868;2023-08-12T05:09:02;3.70;;;2.07;;
63807;SDS011;49961;43.970;22.868;2023-08-12T05:10:02;3.90;;;2.27;;
63807;SDS011;49961;43.970;22.868;2023-08-12T05:11:03;6.33;;;2.37;;
63807;SDS011;49961;43.970;22.868;2023-08-12T05:12:03;4.10;;;2.10;;
63807;SDS011;49961;43.970;22.868;2023-08-12T05:13:04;5.30;;;2.40;;
63807;SDS011;49961;43.970;22.868;2023-08-12T05:14:04;5.27;;;2.20;;
63807;SDS011;49961;43.970;22.868;2023-08-12T05:15:05;6.43;;;2.43;;
63807;SDS011;49961;43.970;22.868;2023-08-12T05:16:06;6.87;;;2.47;;
63807;SDS011;49961;43.970;22.868;2023-08-12T05:17:06;6.57;;;2.30;;
63807;SDS011;49961;43.970;22.868;2023-08-12T05:18:07;6.53;;;2.50;;
63807;SDS011;49961;43.970;22.868;2023-08-12T05:19:08;4.50;;;2.20;;
63807;SDS011;49961;43.970;22.868;2023-08-12T05:20:08;4.40;;;2.50;;
63807;SDS011;49961;43.970;22.868;2023-08-12T05:21:09;3.57;;;2.40;;
63807;SDS011;49961;43.970;22.868;2023-08-12T05:22:10;6.17;;;2.23;;
63807;SDS011;49961;43.970;22.868;2023-08-12T05:23:10;4.90;;;2.40;;
63807;SDS011;49961;43.970;22.868;2023-08-12T05:24:11;8.57;;;2.67;;
63807;SDS011;49961;43.970;22.868;2023-08-12T05:25:11;3.50;;;2.00;;
63807;SDS011;49961;43.970;22.868;2023-08-12T05:26:12;3.37;;;2.30;;
63807;SDS011;49961;43.970;22.868;2023-08-12T05:27:12;4.57;;;2.30;;
63807;SDS011;49961;43.970;22.868;2023-08-12T05:28:13;5.03;;;2.30;;
63807;SDS011;49961;43.970;22.868;2023-08-12T05:29:13;3.70;;;2.17;;
63807;SDS011;49961;43.970;22.868;2023-08-12T05:30:14;4.83;;;2.40;;
63807;SDS011;49961;43.970;22.868;2023-08-12T05:31:14;3.50;;;2.30;;
63807;SDS011;49961;43.970;22.868;2023-08-12T05:32:15;3.63;;;2.30;;
63807;SDS011;49961;43.970;22.868;2023-08-12T05:33:15;4.43;;;2.23;;
63807;SDS011;49961;43.970;22.868;2023-08-12T05:34:15;3.20;;;2.20;;
63807;SDS011;49961;43.970;22.868;2023-08-12T05:35:16;4.07;;;2.50;;
63807;SDS011;49961;43.970;22.868;2023-08-12T05:36:16;5.00;;;2.60;;
63807;SDS011;49961;43.970;22.868;2023-08-12T05:37:16;6.73;;;2.53;;
63807;SDS011;49961;43.970;22.868;2023-08-12T05:38:17;6.20;;;2.60;;
63807;SDS011;49961;43.970;22.868;2023-08-12T05:39:17;4.30;;;2.43;;
63807;SDS011;49961;43.970;22.868;2023-08-12T05:40:18;5.07;;;2.70;;
63807;SDS011;49961;43.970;22.868;2023-08-12T05:41:18;6.63;;;3.67;;
63807;SDS011;49961;43.970;22.868;2023-08-12T05:42:19;7.27;;;3.80;;
63807;SDS011;49961;43.970;22.868;2023-08-12T05:43:19;7.50;;;3.73;;
63807;SDS011;49961;43.970;22.868;2023-08-12T05:44:20;6.13;;;4.00;;
63807;SDS011;49961;43.970;22.868;2023-08-12T05:45:20;5.93;;;4.30;;
63807;SDS011;49961;43.970;22.868;2023-08-12T05:46:20;7.87;;;4.27;;
63807;SDS011;49961;43.970;22.868;2023-08-12T05:47:21;9.33;;;4.13;;
63807;SDS011;49961;43.970;22.868;2023-08-12T05:48:21;5.77;;;3.37;;
63807;SDS011;49961;43.970;22.868;2023-08-12T05:49:22;7.20;;;3.80;;
63807;SDS011;49961;43.970;22.868;2023-08-12T05:50:22;10.73;;;4.23;;
63807;SDS011;49961;43.970;22.868;2023-08-12T05:51:22;6.80;;;3.70;;
63807;SDS011;49961;43.970;22.868;2023-08-12T05:52:23;5.57;;;3.30;;
63807;SDS011;49961;43.970;22.868;2023-08-12T05:53:23;5.20;;;3.27;;
63807;SDS011;49961;43.970;22.868;2023-08-12T05:54:24;5.47;;;3.60;;
63807;SDS011;49961;43.970;22.868;2023-08-12T05:55:24;5.67;;;3.70;;
63807;SDS011;49961;43.970;22.868;2023-08-12T05:56:25;6.10;;;3.40;;
63807;SDS011;49961;43.970;22.868;2023-08-12T05:57:25;6.20;;;3.43;;
63807;SDS011;49961;43.970;22.868;2023-08-12T05:58:26;7.20;;;3.40;;
63807;SDS011;49961;43.970;22.868;2023-08-12T05:59:26;5.90;;;3.30;;
63807;SDS011;49961;43.970;22.868;2023-08-12T06:00:27;6.30;;;3.07;;
63807;SDS011;49961;43.970;22.868;2023-08-12T06:01:27;6.67;;;3.20;;
63807;SDS011;49961;43.970;22.868;2023-08-12T06:02:27;4.50;;;2.40;;
63807;SDS011;49961;43.970;22.868;2023-08-12T06:03:28;5.03;;;2.73;;
63807;SDS011;49961;43.970;22.868;2023-08-12T06:04:28;5.13;;;2.50;;